sensor_id;sensor_type;location;lat;lon;timestamp;P1;durP1;ratioP1;P2;durP2;ratioP2
72198;SDS011;60103;51.014;16.992;2023-02-11T00:02:14;26.90;;;10.70;;
72198;SDS011;60103;51.014;16.992;2023-02-11T00:04:43;34.90;;;13.00;;
72198;SDS011;60103;51.014;16.992;2023-02-11T00:07:11;32.00;;;11.90;;
72198;SDS011;60103;51.014;16.992;2023-02-11T00:09:40;31.90;;;12.40;;
72198;SDS011;60103;51.014;16.992;2023-02-11T00:12:09;28.70;;;11.30;;
72198;SDS011;60103;51.014;16.992;2023-02-11T00:14:38;33.20;;;11.20;;
72198;SDS011;60103;51.014;16.992;2023-02-11T00:17:06;28.90;;;11.30;;
72198;SDS011;60103;51.014;16.992;2023-02-11T00:19:35;26.70;;;11.20;;
72198;SDS011;60103;51.014;16.992;2023-02-11T00:22:04;27.80;;;9.50;;
72198;SDS011;60103;51.014;16.992;2023-02-11T00:24:34;30.40;;;10.60;;
72198;SDS011;60103;51.014;16.992;2023-02-11T00:27:03;26.80;;;10.70;;
72198;SDS011;60103;51.014;16.992;2023-02-11T00:29:32;31.60;;;12.50;;
72198;SDS011;60103;51.014;16.992;2023-02-11T00:32:03;28.80;;;11.50;;
72198;SDS011;60103;51.014;16.992;2023-02-11T00:34:33;32.90;;;12.30;;
72198;SDS011;60103;51.014;16.992;2023-02-11T00:37:02;26.70;;;9.60;;
72198;SDS011;60103;51.014;16.992;2023-02-11T00:39:31;31.80;;;10.20;;
72198;SDS011;60103;51.014;16.992;2023-02-11T00:42:00;32.60;;;12.00;;
72198;SDS011;60103;51.014;16.992;2023-02-11T00:44:28;31.10;;;11.20;;
72198;SDS011;60103;51.014;16.992;2023-02-11T00:46:57;30.00;;;10.20;;
72198;SDS011;60103;51.014;16.992;2023-02-11T00:49:26;30.40;;;11.60;;
72198;SDS011;60103;51.014;16.992;2023-02-11T00:51:55;27.40;;;10.20;;
72198;SDS011;60103;51.014;16.992;2023-02-11T00:54:23;28.10;;;10.70;;
72198;SDS011;60103;51.014;16.992;2023-02-11T00:56:55;41.70;;;14.90;;
72198;SDS011;60103;51.014;16.992;2023-02-11T00:59:24;32.70;;;12.60;;
72198;SDS011;60103;51.014;16.992;2023-02-11T01:01:53;34.70;;;12.70;;
72198;SDS011;60103;51.014;16.992;2023-02-11T01:04:21;34.90;;;12.70;;
72198;SDS011;60103;51.014;16.992;2023-02-11T01:06:51;32.60;;;11.40;;
72198;SDS011;60103;51.014;16.992;2023-02-11T01:09:20;33.30;;;13.10;;
72198;SDS011;60103;51.014;16.992;2023-02-11T01:11:49;35.50;;;13.50;;
72198;SDS011;60103;51.014;16.992;2023-02-11T01:14:18;29.20;;;11.80;;
72198;SDS011;60103;51.014;16.992;2023-02-11T01:16:47;34.70;;;14.00;;
72198;SDS011;60103;51.014;16.992;2023-02-11T01:19:15;34.50;;;14.30;;
72198;SDS011;60103;51.014;16.992;2023-02-11T01:21:45;37.50;;;14.70;;
72198;SDS011;60103;51.014;16.992;2023-02-11T01:24:14;29.70;;;11.80;;
72198;SDS011;60103;51.014;16.992;2023-02-11T01:26:44;36.20;;;13.40;;
72198;SDS011;60103;51.014;16.992;2023-02-11T01:29:12;32.90;;;12.00;;
72198;SDS011;60103;51.014;16.992;2023-02-11T01:31:41;31.20;;;11.20;;
72198;SDS011;60103;51.014;16.992;2023-02-11T01:34:10;30.40;;;12.00;;
72198;SDS011;60103;51.014;16.992;2023-02-11T01:36:39;36.20;;;12.60;;
72198;SDS011;60103;51.014;16.992;2023-02-11T01:39:08;31.50;;;12.60;;
72198;SDS011;60103;51.014;16.992;2023-02-11T01:41:38;31.40;;;12.00;;
72198;SDS011;60103;51.014;16.992;2023-02-11T01:44:24;33.30;;;12.80;;
72198;SDS011;60103;51.014;16.992;2023-02-11T01:47:00;27.80;;;10.80;;
72198;SDS011;60103;51.014;16.992;2023-02-11T01:50:06;32.90;;;11.70;;
72198;SDS011;60103;51.014;16.992;2023-02-11T01:54:59;33.80;;;13.00;;
72198;SDS011;60103;51.014;16.992;2023-02-11T01:57:51;32.10;;;11.70;;
72198;SDS011;60103;51.014;16.992;2023-02-11T02:00:34;33.80;;;13.00;;
72198;SDS011;60103;51.014;16.992;2023-02-11T02:03:12;38.30;;;13.40;;
72198;SDS011;60103;51.014;16.992;2023-02-11T02:05:46;35.00;;;12.70;;
72198;SDS011;60103;51.014;16.992;2023-02-11T02:11:08;34.30;;;13.30;;
72198;SDS011;60103;51.014;16.992;2023-02-11T02:13:37;25.80;;;10.10;;
72198;SDS011;60103;51.014;16.992;2023-02-11T02:16:07;27.90;;;10.90;;
72198;SDS011;60103;51.014;16.992;2023-02-11T02:24:16;26.00;;;10.40;;
72198;SDS011;60103;51.014;16.992;2023-02-11T02:27:01;39.10;;;14.70;;
72198;SDS011;60103;51.014;16.992;2023-02-11T02:29:51;25.60;;;10.20;;
72198;SDS011;60103;51.014;16.992;2023-02-11T02:35:31;25.30;;;10.00;;
72198;SDS011;60103;51.014;16.992;2023-02-11T02:41:03;28.60;;;11.80;;
72198;SDS011;60103;51.014;16.992;2023-02-11T02:43:34;28.80;;;11.70;;
72198;SDS011;60103;51.014;16.992;2023-02-11T02:46:24;28.80;;;11.40;;
72198;SDS011;60103;51.014;16.992;2023-02-11T02:48:54;26.50;;;11.60;;
72198;SDS011;60103;51.014;16.992;2023-02-11T02:51:26;28.20;;;12.80;;
72198;SDS011;60103;51.014;16.992;2023-02-11T03:03:05;30.50;;;11.50;;
72198;SDS011;60103;51.014;16.992;2023-02-11T03:05:47;32.50;;;12.90;;
72198;SDS011;60103;51.014;16.992;2023-02-11T03:10:52;20.80;;;8.80;;
72198;SDS011;60103;51.014;16.992;2023-02-11T03:13:23;23.50;;;9.00;;
72198;SDS011;60103;51.014;16.992;2023-02-11T03:15:54;25.10;;;10.50;;
72198;SDS011;60103;51.014;16.992;2023-02-11T03:18:25;26.30;;;11.40;;
72198;SDS011;60103;51.014;16.992;2023-02-11T03:20:55;26.50;;;11.50;;
72198;SDS011;60103;51.014;16.992;2023-02-11T03:23:28;29.40;;;13.00;;
72198;SDS011;60103;51.014;16.992;2023-02-11T03:26:08;24.60;;;9.60;;
72198;SDS011;60103;51.014;16.992;2023-02-11T03:28:54;25.40;;;9.70;;
72198;SDS011;60103;51.014;16.992;2023-02-11T03:31:54;20.20;;;8.90;;
72198;SDS011;60103;51.014;16.992;2023-02-11T03:34:37;24.30;;;11.30;;
72198;SDS011;60103;51.014;16.992;2023-02-11T03:39:52;26.40;;;10.60;;
72198;SDS011;60103;51.014;16.992;2023-02-11T03:42:24;27.80;;;12.30;;
72198;SDS011;60103;51.014;16.992;2023-02-11T03:44:57;22.60;;;9.50;;
72198;SDS011;60103;51.014;16.992;2023-02-11T03:47:28;24.90;;;10.00;;
72198;SDS011;60103;51.014;16.992;2023-02-11T03:49:59;24.40;;;10.00;;
72198;SDS011;60103;51.014;16.992;2023-02-11T03:52:31;25.10;;;11.00;;
72198;SDS011;60103;51.014;16.992;2023-02-11T03:55:02;26.30;;;11.40;;
72198;SDS011;60103;51.014;16.992;2023-02-11T03:57:42;27.00;;;10.50;;
72198;SDS011;60103;51.014;16.992;2023-02-11T04:00:11;24.40;;;9.90;;
72198;SDS011;60103;51.014;16.992;2023-02-11T04:02:41;22.20;;;10.00;;
72198;SDS011;60103;51.014;16.992;2023-02-11T04:05:10;21.40;;;9.60;;
72198;SDS011;60103;51.014;16.992;2023-02-11T04:07:41;27.00;;;10.10;;
72198;SDS011;60103;51.014;16.992;2023-02-11T04:10:10;24.70;;;9.80;;
72198;SDS011;60103;51.014;16.992;2023-02-11T04:12:39;20.60;;;8.90;;
72198;SDS011;60103;51.014;16.992;2023-02-11T04:15:08;25.60;;;10.80;;
72198;SDS011;60103;51.014;16.992;2023-02-11T04:17:38;30.10;;;11.80;;
72198;SDS011;60103;51.014;16.992;2023-02-11T04:20:09;29.80;;;11.20;;
72198;SDS011;60103;51.014;16.992;2023-02-11T04:22:38;28.00;;;11.10;;
72198;SDS011;60103;51.014;16.992;2023-02-11T04:25:07;26.40;;;10.40;;
72198;SDS011;60103;51.014;16.992;2023-02-11T04:27:37;23.50;;;9.30;;
72198;SDS011;60103;51.014;16.992;2023-02-11T04:30:06;25.90;;;10.20;;
72198;SDS011;60103;51.014;16.992;2023-02-11T04:32:36;23.20;;;9.90;;
72198;SDS011;60103;51.014;16.992;2023-02-11T04:35:05;21.20;;;10.10;;
72198;SDS011;60103;51.014;16.992;2023-02-11T04:37:34;28.90;;;12.20;;
72198;SDS011;60103;51.014;16.992;2023-02-11T04:40:03;25.50;;;10.00;;
72198;SDS011;60103;51.014;16.992;2023-02-11T04:42:32;23.10;;;10.00;;
72198;SDS011;60103;51.014;16.992;2023-02-11T04:45:01;26.80;;;11.20;;
72198;SDS011;60103;51.014;16.992;2023-02-11T04:47:30;28.60;;;13.00;;
72198;SDS011;60103;51.014;16.992;2023-02-11T04:49:58;30.90;;;11.70;;
72198;SDS011;60103;51.014;16.992;2023-02-11T04:52:27;30.00;;;13.50;;
72198;SDS011;60103;51.014;16.992;2023-02-11T04:54:56;22.30;;;10.40;;
72198;SDS011;60103;51.014;16.992;2023-02-11T04:57:25;24.30;;;9.50;;
72198;SDS011;60103;51.014;16.992;2023-02-11T04:59:53;22.50;;;9.70;;
72198;SDS011;60103;51.014;16.992;2023-02-11T05:02:22;27.40;;;11.90;;
72198;SDS011;60103;51.014;16.992;2023-02-11T05:04:51;28.20;;;13.20;;
72198;SDS011;60103;51.014;16.992;2023-02-11T05:07:20;24.50;;;11.20;;
72198;SDS011;60103;51.014;16.992;2023-02-11T05:09:48;34.60;;;12.10;;
72198;SDS011;60103;51.014;16.992;2023-02-11T05:12:17;24.90;;;10.70;;
72198;SDS011;60103;51.014;16.992;2023-02-11T05:14:46;29.80;;;13.30;;
72198;SDS011;60103;51.014;16.992;2023-02-11T05:17:14;25.40;;;10.40;;
72198;SDS011;60103;51.014;16.992;2023-02-11T05:19:43;27.10;;;10.40;;
72198;SDS011;60103;51.014;16.992;2023-02-11T05:22:12;26.60;;;12.40;;
72198;SDS011;60103;51.014;16.992;2023-02-11T05:24:41;27.10;;;11.30;;
72198;SDS011;60103;51.014;16.992;2023-02-11T05:27:10;29.00;;;11.30;;
72198;SDS011;60103;51.014;16.992;2023-02-11T05:29:39;27.50;;;11.80;;
72198;SDS011;60103;51.014;16.992;2023-02-11T05:32:08;32.40;;;14.00;;
72198;SDS011;60103;51.014;16.992;2023-02-11T05:34:36;24.70;;;11.10;;
72198;SDS011;60103;51.014;16.992;2023-02-11T05:37:05;27.90;;;12.90;;
72198;SDS011;60103;51.014;16.992;2023-02-11T05:39:34;25.10;;;11.20;;
72198;SDS011;60103;51.014;16.992;2023-02-11T05:42:03;30.70;;;14.00;;
72198;SDS011;60103;51.014;16.992;2023-02-11T05:44:31;25.80;;;10.80;;
72198;SDS011;60103;51.014;16.992;2023-02-11T05:47:00;32.70;;;12.90;;
72198;SDS011;60103;51.014;16.992;2023-02-11T05:49:29;25.80;;;11.70;;
72198;SDS011;60103;51.014;16.992;2023-02-11T05:51:58;26.80;;;11.30;;
72198;SDS011;60103;51.014;16.992;2023-02-11T05:54:26;31.20;;;12.20;;
72198;SDS011;60103;51.014;16.992;2023-02-11T05:56:55;21.40;;;9.30;;
72198;SDS011;60103;51.014;16.992;2023-02-11T05:59:24;25.60;;;11.20;;
72198;SDS011;60103;51.014;16.992;2023-02-11T06:01:53;26.50;;;10.40;;
72198;SDS011;60103;51.014;16.992;2023-02-11T06:04:22;26.50;;;10.90;;
72198;SDS011;60103;51.014;16.992;2023-02-11T06:06:50;24.30;;;10.60;;
72198;SDS011;60103;51.014;16.992;2023-02-11T06:09:19;23.50;;;11.10;;
72198;SDS011;60103;51.014;16.992;2023-02-11T06:11:48;30.10;;;12.10;;
72198;SDS011;60103;51.014;16.992;2023-02-11T06:14:18;23.90;;;10.40;;
72198;SDS011;60103;51.014;16.992;2023-02-11T06:16:46;28.00;;;11.80;;
72198;SDS011;60103;51.014;16.992;2023-02-11T06:19:15;24.40;;;10.60;;
72198;SDS011;60103;51.014;16.992;2023-02-11T06:21:44;28.10;;;11.20;;
72198;SDS011;60103;51.014;16.992;2023-02-11T06:24:13;30.30;;;12.10;;
72198;SDS011;60103;51.014;16.992;2023-02-11T06:26:43;27.60;;;11.00;;
72198;SDS011;60103;51.014;16.992;2023-02-11T06:29:11;24.00;;;11.30;;
72198;SDS011;60103;51.014;16.992;2023-02-11T06:31:41;23.90;;;7.90;;
72198;SDS011;60103;51.014;16.992;2023-02-11T06:34:09;25.90;;;11.30;;
72198;SDS011;60103;51.014;16.992;2023-02-11T06:36:38;26.70;;;9.90;;
72198;SDS011;60103;51.014;16.992;2023-02-11T06:39:09;22.20;;;8.70;;
72198;SDS011;60103;51.014;16.992;2023-02-11T06:41:39;22.00;;;8.70;;
72198;SDS011;60103;51.014;16.992;2023-02-11T06:44:07;26.10;;;11.30;;
72198;SDS011;60103;51.014;16.992;2023-02-11T06:46:36;25.80;;;10.60;;
72198;SDS011;60103;51.014;16.992;2023-02-11T06:49:05;24.20;;;9.50;;
72198;SDS011;60103;51.014;16.992;2023-02-11T06:51:34;19.70;;;7.90;;
72198;SDS011;60103;51.014;16.992;2023-02-11T06:54:03;24.90;;;10.20;;
72198;SDS011;60103;51.014;16.992;2023-02-11T06:56:32;21.90;;;8.90;;
72198;SDS011;60103;51.014;16.992;2023-02-11T06:59:02;23.50;;;9.10;;
72198;SDS011;60103;51.014;16.992;2023-02-11T07:01:30;25.10;;;9.80;;
72198;SDS011;60103;51.014;16.992;2023-02-11T07:03:59;22.40;;;7.90;;
72198;SDS011;60103;51.014;16.992;2023-02-11T07:06:28;24.30;;;9.70;;
72198;SDS011;60103;51.014;16.992;2023-02-11T07:08:56;23.90;;;9.20;;
72198;SDS011;60103;51.014;16.992;2023-02-11T07:11:26;20.20;;;8.60;;
72198;SDS011;60103;51.014;16.992;2023-02-11T07:13:59;27.50;;;11.30;;
72198;SDS011;60103;51.014;16.992;2023-02-11T07:16:29;27.00;;;11.00;;
72198;SDS011;60103;51.014;16.992;2023-02-11T07:18:57;19.70;;;9.00;;
72198;SDS011;60103;51.014;16.992;2023-02-11T07:21:26;21.50;;;9.30;;
72198;SDS011;60103;51.014;16.992;2023-02-11T07:23:55;23.50;;;8.60;;
72198;SDS011;60103;51.014;16.992;2023-02-11T07:26:24;20.70;;;8.80;;
72198;SDS011;60103;51.014;16.992;2023-02-11T07:28:56;26.30;;;11.20;;
72198;SDS011;60103;51.014;16.992;2023-02-11T07:31:25;20.30;;;8.60;;
72198;SDS011;60103;51.014;16.992;2023-02-11T07:33:56;24.80;;;10.40;;
72198;SDS011;60103;51.014;16.992;2023-02-11T07:36:27;24.80;;;10.20;;
72198;SDS011;60103;51.014;16.992;2023-02-11T07:38:57;21.80;;;9.40;;
72198;SDS011;60103;51.014;16.992;2023-02-11T07:41:27;22.90;;;9.90;;
72198;SDS011;60103;51.014;16.992;2023-02-11T07:43:55;23.70;;;9.90;;
72198;SDS011;60103;51.014;16.992;2023-02-11T07:46:25;23.40;;;10.10;;
72198;SDS011;60103;51.014;16.992;2023-02-11T07:48:55;23.40;;;10.20;;
72198;SDS011;60103;51.014;16.992;2023-02-11T07:51:27;22.90;;;8.90;;
72198;SDS011;60103;51.014;16.992;2023-02-11T07:53:57;22.30;;;9.70;;
72198;SDS011;60103;51.014;16.992;2023-02-11T07:56:27;26.40;;;10.40;;
72198;SDS011;60103;51.014;16.992;2023-02-11T07:58:58;27.30;;;12.00;;
72198;SDS011;60103;51.014;16.992;2023-02-11T08:01:28;24.70;;;10.60;;
72198;SDS011;60103;51.014;16.992;2023-02-11T08:03:58;27.20;;;10.40;;
72198;SDS011;60103;51.014;16.992;2023-02-11T08:06:29;26.00;;;10.20;;
72198;SDS011;60103;51.014;16.992;2023-02-11T08:09:03;21.40;;;8.60;;
72198;SDS011;60103;51.014;16.992;2023-02-11T08:11:33;24.60;;;11.00;;
72198;SDS011;60103;51.014;16.992;2023-02-11T08:14:02;25.20;;;9.60;;
72198;SDS011;60103;51.014;16.992;2023-02-11T08:16:31;23.50;;;9.90;;
72198;SDS011;60103;51.014;16.992;2023-02-11T08:19:03;23.70;;;10.30;;
72198;SDS011;60103;51.014;16.992;2023-02-11T08:21:33;27.40;;;11.00;;
72198;SDS011;60103;51.014;16.992;2023-02-11T08:24:02;24.50;;;9.30;;
72198;SDS011;60103;51.014;16.992;2023-02-11T08:26:31;24.70;;;10.10;;
72198;SDS011;60103;51.014;16.992;2023-02-11T08:29:04;25.80;;;10.10;;
72198;SDS011;60103;51.014;16.992;2023-02-11T08:31:37;24.10;;;10.20;;
72198;SDS011;60103;51.014;16.992;2023-02-11T08:34:07;21.60;;;10.30;;
72198;SDS011;60103;51.014;16.992;2023-02-11T08:36:39;26.50;;;11.90;;
72198;SDS011;60103;51.014;16.992;2023-02-11T08:39:12;25.00;;;10.00;;
72198;SDS011;60103;51.014;16.992;2023-02-11T08:41:48;22.90;;;10.30;;
72198;SDS011;60103;51.014;16.992;2023-02-11T08:44:19;21.50;;;8.80;;
72198;SDS011;60103;51.014;16.992;2023-02-11T08:46:50;20.50;;;8.60;;
72198;SDS011;60103;51.014;16.992;2023-02-11T08:49:19;23.50;;;10.20;;
72198;SDS011;60103;51.014;16.992;2023-02-11T08:51:48;23.50;;;9.10;;
72198;SDS011;60103;51.014;16.992;2023-02-11T08:54:17;25.50;;;11.30;;
72198;SDS011;60103;51.014;16.992;2023-02-11T08:56:49;24.00;;;10.60;;
72198;SDS011;60103;51.014;16.992;2023-02-11T08:59:20;30.20;;;11.30;;
72198;SDS011;60103;51.014;16.992;2023-02-11T09:01:50;22.00;;;10.00;;
72198;SDS011;60103;51.014;16.992;2023-02-11T09:04:23;21.30;;;8.90;;
72198;SDS011;60103;51.014;16.992;2023-02-11T09:06:52;23.10;;;10.20;;
72198;SDS011;60103;51.014;16.992;2023-02-11T09:09:21;21.00;;;8.80;;
72198;SDS011;60103;51.014;16.992;2023-02-11T09:11:50;20.80;;;8.60;;
72198;SDS011;60103;51.014;16.992;2023-02-11T09:14:19;21.90;;;9.60;;
72198;SDS011;60103;51.014;16.992;2023-02-11T09:16:50;23.10;;;9.00;;
72198;SDS011;60103;51.014;16.992;2023-02-11T09:19:19;24.00;;;9.40;;
72198;SDS011;60103;51.014;16.992;2023-02-11T09:21:48;22.40;;;8.80;;
72198;SDS011;60103;51.014;16.992;2023-02-11T09:24:17;18.90;;;8.30;;
72198;SDS011;60103;51.014;16.992;2023-02-11T09:26:46;22.70;;;9.50;;
72198;SDS011;60103;51.014;16.992;2023-02-11T09:29:17;26.30;;;9.10;;
72198;SDS011;60103;51.014;16.992;2023-02-11T09:31:46;23.30;;;9.10;;
72198;SDS011;60103;51.014;16.992;2023-02-11T09:34:15;22.70;;;9.40;;
72198;SDS011;60103;51.014;16.992;2023-02-11T09:36:43;22.40;;;9.70;;
72198;SDS011;60103;51.014;16.992;2023-02-11T09:39:14;22.70;;;9.20;;
72198;SDS011;60103;51.014;16.992;2023-02-11T09:44:26;24.40;;;10.30;;
72198;SDS011;60103;51.014;16.992;2023-02-11T09:47:02;25.50;;;11.10;;
72198;SDS011;60103;51.014;16.992;2023-02-11T09:49:39;25.10;;;10.30;;
72198;SDS011;60103;51.014;16.992;2023-02-11T09:54:59;24.40;;;10.40;;
72198;SDS011;60103;51.014;16.992;2023-02-11T09:57:49;25.10;;;10.50;;
72198;SDS011;60103;51.014;16.992;2023-02-11T10:05:36;24.00;;;9.20;;
72198;SDS011;60103;51.014;16.992;2023-02-11T10:08:21;23.10;;;10.00;;
72198;SDS011;60103;51.014;16.992;2023-02-11T10:22:52;23.40;;;10.30;;
72198;SDS011;60103;51.014;16.992;2023-02-11T10:25:28;22.60;;;9.30;;
72198;SDS011;60103;51.014;16.992;2023-02-11T10:28:17;23.70;;;10.50;;
72198;SDS011;60103;51.014;16.992;2023-02-11T10:33:24;24.50;;;11.30;;
72198;SDS011;60103;51.014;16.992;2023-02-11T10:35:55;23.00;;;10.70;;
72198;SDS011;60103;51.014;16.992;2023-02-11T10:38:24;26.40;;;11.80;;
72198;SDS011;60103;51.014;16.992;2023-02-11T10:40:52;25.30;;;11.80;;
72198;SDS011;60103;51.014;16.992;2023-02-11T10:43:22;24.30;;;10.40;;
72198;SDS011;60103;51.014;16.992;2023-02-11T10:45:54;25.60;;;10.40;;
72198;SDS011;60103;51.014;16.992;2023-02-11T10:48:43;22.20;;;9.90;;
72198;SDS011;60103;51.014;16.992;2023-02-11T10:56:33;24.30;;;10.70;;
72198;SDS011;60103;51.014;16.992;2023-02-11T10:59:13;28.00;;;11.80;;
72198;SDS011;60103;51.014;16.992;2023-02-11T11:01:58;25.90;;;10.60;;
72198;SDS011;60103;51.014;16.992;2023-02-11T11:05:18;25.40;;;11.10;;
72198;SDS011;60103;51.014;16.992;2023-02-11T11:07:53;29.60;;;12.50;;
72198;SDS011;60103;51.014;16.992;2023-02-11T11:10:45;26.60;;;12.90;;
72198;SDS011;60103;51.014;16.992;2023-02-11T11:18:42;19.70;;;8.00;;
72198;SDS011;60103;51.014;16.992;2023-02-11T11:23:53;20.80;;;8.70;;
72198;SDS011;60103;51.014;16.992;2023-02-11T11:26:39;22.90;;;10.00;;
72198;SDS011;60103;51.014;16.992;2023-02-11T11:29:14;25.00;;;9.80;;
72198;SDS011;60103;51.014;16.992;2023-02-11T11:31:53;22.60;;;9.20;;
72198;SDS011;60103;51.014;16.992;2023-02-11T11:34:39;27.80;;;11.10;;
72198;SDS011;60103;51.014;16.992;2023-02-11T11:39:56;23.30;;;9.70;;
72198;SDS011;60103;51.014;16.992;2023-02-11T11:45:57;22.40;;;9.20;;
72198;SDS011;60103;51.014;16.992;2023-02-11T11:51:11;25.80;;;12.10;;
72198;SDS011;60103;51.014;16.992;2023-02-11T11:53:52;20.30;;;8.50;;
72198;SDS011;60103;51.014;16.992;2023-02-11T11:56:31;19.50;;;8.50;;
72198;SDS011;60103;51.014;16.992;2023-02-11T11:59:09;14.60;;;6.20;;
72198;SDS011;60103;51.014;16.992;2023-02-11T12:07:15;23.90;;;9.90;;
72198;SDS011;60103;51.014;16.992;2023-02-11T12:12:49;21.70;;;10.10;;
72198;SDS011;60103;51.014;16.992;2023-02-11T12:18:07;21.20;;;9.20;;
72198;SDS011;60103;51.014;16.992;2023-02-11T12:23:30;25.40;;;11.20;;
72198;SDS011;60103;51.014;16.992;2023-02-11T12:29:07;21.40;;;9.10;;
72198;SDS011;60103;51.014;16.992;2023-02-11T12:43:43;20.50;;;8.40;;
72198;SDS011;60103;51.014;16.992;2023-02-11T12:51:39;20.40;;;9.70;;
72198;SDS011;60103;51.014;16.992;2023-02-11T12:54:30;22.40;;;9.20;;
72198;SDS011;60103;51.014;16.992;2023-02-11T12:57:17;23.30;;;9.90;;
72198;SDS011;60103;51.014;16.992;2023-02-11T13:06:11;24.60;;;11.20;;
72198;SDS011;60103;51.014;16.992;2023-02-11T13:08:39;24.80;;;12.70;;
72198;SDS011;60103;51.014;16.992;2023-02-11T13:11:16;21.90;;;10.40;;
72198;SDS011;60103;51.014;16.992;2023-02-11T13:19:12;19.70;;;9.00;;
72198;SDS011;60103;51.014;16.992;2023-02-11T13:24:41;21.90;;;8.40;;
72198;SDS011;60103;51.014;16.992;2023-02-11T13:30:23;19.10;;;9.30;;
72198;SDS011;60103;51.014;16.992;2023-02-11T13:33:03;22.80;;;9.90;;
72198;SDS011;60103;51.014;16.992;2023-02-11T13:35:38;22.60;;;10.20;;
72198;SDS011;60103;51.014;16.992;2023-02-11T13:41:35;25.00;;;10.40;;
72198;SDS011;60103;51.014;16.992;2023-02-11T13:43:42;18.90;;;8.60;;
72198;SDS011;60103;51.014;16.992;2023-02-11T13:46:13;25.60;;;11.10;;
72198;SDS011;60103;51.014;16.992;2023-02-11T13:48:49;20.20;;;9.90;;
72198;SDS011;60103;51.014;16.992;2023-02-11T13:51:54;22.60;;;9.80;;
72198;SDS011;60103;51.014;16.992;2023-02-11T13:54:21;22.50;;;10.40;;
72198;SDS011;60103;51.014;16.992;2023-02-11T13:59:51;23.20;;;10.50;;
72198;SDS011;60103;51.014;16.992;2023-02-11T14:02:23;21.80;;;8.90;;
72198;SDS011;60103;51.014;16.992;2023-02-11T14:11:04;23.90;;;9.70;;
72198;SDS011;60103;51.014;16.992;2023-02-11T14:16:22;22.10;;;9.40;;
72198;SDS011;60103;51.014;16.992;2023-02-11T14:19:07;21.90;;;9.20;;
72198;SDS011;60103;51.014;16.992;2023-02-11T14:21:37;23.90;;;9.70;;
72198;SDS011;60103;51.014;16.992;2023-02-11T14:37:50;19.40;;;8.80;;
72198;SDS011;60103;51.014;16.992;2023-02-11T14:43:23;18.30;;;8.60;;
72198;SDS011;60103;51.014;16.992;2023-02-11T14:45:56;23.30;;;10.50;;
72198;SDS011;60103;51.014;16.992;2023-02-11T14:48:29;20.50;;;9.20;;
72198;SDS011;60103;51.014;16.992;2023-02-11T14:51:11;22.20;;;9.90;;
72198;SDS011;60103;51.014;16.992;2023-02-11T14:53:46;23.50;;;11.30;;
72198;SDS011;60103;51.014;16.992;2023-02-11T14:56:25;16.10;;;7.00;;
72198;SDS011;60103;51.014;16.992;2023-02-11T14:59:01;21.90;;;8.80;;
72198;SDS011;60103;51.014;16.992;2023-02-11T15:01:33;20.30;;;8.50;;
72198;SDS011;60103;51.014;16.992;2023-02-11T15:04:27;21.40;;;9.80;;
72198;SDS011;60103;51.014;16.992;2023-02-11T15:07:02;19.10;;;8.50;;
72198;SDS011;60103;51.014;16.992;2023-02-11T15:09:40;15.60;;;6.80;;
72198;SDS011;60103;51.014;16.992;2023-02-11T15:12:17;18.20;;;8.40;;
72198;SDS011;60103;51.014;16.992;2023-02-11T15:14:55;21.20;;;10.70;;
72198;SDS011;60103;51.014;16.992;2023-02-11T15:17:28;20.70;;;10.20;;
72198;SDS011;60103;51.014;16.992;2023-02-11T15:20:00;22.80;;;10.00;;
72198;SDS011;60103;51.014;16.992;2023-02-11T15:22:32;22.80;;;9.30;;
72198;SDS011;60103;51.014;16.992;2023-02-11T15:25:09;18.60;;;7.70;;
72198;SDS011;60103;51.014;16.992;2023-02-11T15:27:47;20.30;;;9.80;;
72198;SDS011;60103;51.014;16.992;2023-02-11T15:30:41;18.30;;;8.40;;
72198;SDS011;60103;51.014;16.992;2023-02-11T15:33:19;23.20;;;11.20;;
72198;SDS011;60103;51.014;16.992;2023-02-11T15:35:54;19.00;;;8.60;;
72198;SDS011;60103;51.014;16.992;2023-02-11T15:38:27;18.90;;;7.80;;
72198;SDS011;60103;51.014;16.992;2023-02-11T15:40:59;16.90;;;7.90;;
72198;SDS011;60103;51.014;16.992;2023-02-11T15:43:49;16.60;;;7.90;;
72198;SDS011;60103;51.014;16.992;2023-02-11T15:46:20;24.80;;;11.70;;
72198;SDS011;60103;51.014;16.992;2023-02-11T15:48:52;19.00;;;8.40;;
72198;SDS011;60103;51.014;16.992;2023-02-11T15:51:28;21.50;;;10.30;;
72198;SDS011;60103;51.014;16.992;2023-02-11T15:54:04;20.80;;;9.40;;
72198;SDS011;60103;51.014;16.992;2023-02-11T15:56:41;20.50;;;8.70;;
72198;SDS011;60103;51.014;16.992;2023-02-11T15:59:19;22.30;;;10.70;;
72198;SDS011;60103;51.014;16.992;2023-02-11T16:01:55;17.90;;;8.20;;
72198;SDS011;60103;51.014;16.992;2023-02-11T16:04:26;21.40;;;8.60;;
72198;SDS011;60103;51.014;16.992;2023-02-11T16:06:56;25.60;;;9.80;;
72198;SDS011;60103;51.014;16.992;2023-02-11T16:09:31;21.20;;;8.70;;
72198;SDS011;60103;51.014;16.992;2023-02-11T16:12:22;17.80;;;7.80;;
72198;SDS011;60103;51.014;16.992;2023-02-11T16:14:56;20.20;;;10.00;;
72198;SDS011;60103;51.014;16.992;2023-02-11T16:17:28;21.70;;;9.50;;
72198;SDS011;60103;51.014;16.992;2023-02-11T16:20:00;19.00;;;8.60;;
72198;SDS011;60103;51.014;16.992;2023-02-11T16:22:34;20.40;;;9.10;;
72198;SDS011;60103;51.014;16.992;2023-02-11T16:25:15;19.10;;;7.60;;
72198;SDS011;60103;51.014;16.992;2023-02-11T16:27:52;17.40;;;8.00;;
72198;SDS011;60103;51.014;16.992;2023-02-11T16:30:33;22.00;;;9.10;;
72198;SDS011;60103;51.014;16.992;2023-02-11T16:33:08;24.40;;;8.70;;
72198;SDS011;60103;51.014;16.992;2023-02-11T16:35:39;18.90;;;7.80;;
72198;SDS011;60103;51.014;16.992;2023-02-11T16:38:10;22.90;;;9.30;;
72198;SDS011;60103;51.014;16.992;2023-02-11T16:40:40;22.30;;;10.60;;
72198;SDS011;60103;51.014;16.992;2023-02-11T16:43:22;24.00;;;11.30;;
72198;SDS011;60103;51.014;16.992;2023-02-11T16:45:52;22.00;;;8.90;;
72198;SDS011;60103;51.014;16.992;2023-02-11T16:48:23;24.50;;;10.60;;
72198;SDS011;60103;51.014;16.992;2023-02-11T16:50:55;25.40;;;10.70;;
72198;SDS011;60103;51.014;16.992;2023-02-11T16:53:28;21.30;;;9.90;;
72198;SDS011;60103;51.014;16.992;2023-02-11T16:56:01;25.70;;;10.30;;
72198;SDS011;60103;51.014;16.992;2023-02-11T16:58:35;22.50;;;10.90;;
72198;SDS011;60103;51.014;16.992;2023-02-11T17:01:06;21.80;;;10.30;;
72198;SDS011;60103;51.014;16.992;2023-02-11T17:03:40;20.20;;;9.20;;
72198;SDS011;60103;51.014;16.992;2023-02-11T17:06:11;22.80;;;12.30;;
72198;SDS011;60103;51.014;16.992;2023-02-11T17:08:41;19.20;;;8.60;;
72198;SDS011;60103;51.014;16.992;2023-02-11T17:11:14;22.70;;;9.90;;
72198;SDS011;60103;51.014;16.992;2023-02-11T17:13:45;21.00;;;9.60;;
72198;SDS011;60103;51.014;16.992;2023-02-11T17:16:17;19.70;;;8.80;;
72198;SDS011;60103;51.014;16.992;2023-02-11T17:18:49;20.70;;;8.40;;
72198;SDS011;60103;51.014;16.992;2023-02-11T17:21:20;20.50;;;9.20;;
72198;SDS011;60103;51.014;16.992;2023-02-11T17:23:51;20.80;;;9.50;;
72198;SDS011;60103;51.014;16.992;2023-02-11T17:26:24;17.50;;;8.20;;
72198;SDS011;60103;51.014;16.992;2023-02-11T17:28:58;22.40;;;10.20;;